createdAt,value
2023-04-11T00:01:14.929Z,8.03
2023-04-11T00:03:41.763Z,7.88
2023-04-11T00:06:08.713Z,7.93
2023-04-11T00:08:35.315Z,7.92
2023-04-11T00:11:01.937Z,7.87
2023-04-11T00:13:28.570Z,7.90
2023-04-11T00:15:55.897Z,7.82
2023-04-11T00:18:23.085Z,7.80
2023-04-11T00:20:49.758Z,7.94
2023-04-11T00:23:16.464Z,7.97
2023-04-11T00:25:43.152Z,7.95
2023-04-11T00:28:10.577Z,7.97
2023-04-11T00:30:37.865Z,8.07
2023-04-11T00:33:04.621Z,7.79
2023-04-11T00:35:34.727Z,8.00
2023-04-11T00:38:02.216Z,7.85
2023-04-11T00:40:29.137Z,7.90
2023-04-11T00:42:56.692Z,7.85
2023-04-11T00:45:23.377Z,7.82
2023-04-11T00:47:50.579Z,7.79
2023-04-11T00:50:18.341Z,7.95
2023-04-11T00:52:48.400Z,7.80
2023-04-11T00:55:15.163Z,7.76
2023-04-11T00:57:42.944Z,7.79
2023-04-11T01:00:10.843Z,7.78
2023-04-11T01:02:38.811Z,7.72
2023-04-11T01:05:05.901Z,7.73
2023-04-11T01:07:34.397Z,7.78
2023-04-11T01:10:01.560Z,7.73
2023-04-11T01:12:29.615Z,7.75
2023-04-11T01:14:56.642Z,7.86
2023-04-11T01:17:25.700Z,7.92
2023-04-11T01:19:52.507Z,7.85
2023-04-11T01:22:21.515Z,7.80
2023-04-11T01:24:48.296Z,7.63
2023-04-11T01:27:15.127Z,7.57
2023-04-11T01:29:41.677Z,7.58
2023-04-11T01:32:08.500Z,7.73
2023-04-11T01:34:36.223Z,7.65
2023-04-11T01:37:02.835Z,7.59
2023-04-11T01:39:29.885Z,7.61
2023-04-11T01:41:57.819Z,7.65
2023-04-11T01:44:25.627Z,7.68
2023-04-11T01:46:52.384Z,7.70
2023-04-11T01:49:19.038Z,7.81
2023-04-11T01:51:47.213Z,7.75
2023-04-11T01:54:13.906Z,7.68
2023-04-11T01:56:40.487Z,7.64
2023-04-11T01:59:07.143Z,7.83
2023-04-11T02:01:34.530Z,7.69
2023-04-11T02:04:01.708Z,7.79
2023-04-11T02:06:28.517Z,7.75
2023-04-11T02:08:55.323Z,7.70
2023-04-11T02:11:22.210Z,7.59
2023-04-11T02:13:49.334Z,7.62
2023-04-11T02:16:18.093Z,7.71
2023-04-11T02:18:46.286Z,7.50
2023-04-11T02:21:13.242Z,7.51
2023-04-11T02:23:39.991Z,7.65
2023-04-11T02:26:08.759Z,7.73
2023-04-11T02:28:36.663Z,7.80
2023-04-11T02:31:03.809Z,7.71
2023-04-11T02:33:30.771Z,7.94
2023-04-11T02:35:57.491Z,7.89
2023-04-11T02:38:24.141Z,7.87
2023-04-11T02:40:51.161Z,7.94
2023-04-11T02:43:18.808Z,7.84
2023-04-11T02:45:45.468Z,7.92
2023-04-11T02:48:14.005Z,7.95
2023-04-11T02:50:43.926Z,7.80
2023-04-11T02:53:11.388Z,7.69
2023-04-11T02:55:43.801Z,7.59
2023-04-11T02:58:10.692Z,7.34
2023-04-11T03:00:38.116Z,7.43
2023-04-11T03:03:08.166Z,7.28
2023-04-11T03:05:40.402Z,7.24
2023-04-11T03:08:09.171Z,7.28
2023-04-11T03:10:38.868Z,7.14
2023-04-11T03:13:09.219Z,7.04
2023-04-11T03:15:36.252Z,6.66
2023-04-11T03:18:07.087Z,6.26
2023-04-11T03:20:36.876Z,6.26
2023-04-11T03:23:03.729Z,6.08
2023-04-11T03:25:30.565Z,5.96
2023-04-11T03:27:57.862Z,5.84
2023-04-11T03:30:24.706Z,5.98
2023-04-11T03:32:52.985Z,5.85
2023-04-11T03:35:20.770Z,5.90
2023-04-11T03:37:49.505Z,5.91
2023-04-11T03:40:18.513Z,6.04
2023-04-11T03:42:50.609Z,6.07
2023-04-11T03:45:21.502Z,6.10
2023-04-11T03:47:49.630Z,6.03
2023-04-11T03:50:19.893Z,6.09
2023-04-11T03:52:50.012Z,6.06
2023-04-11T03:55:16.850Z,6.15
2023-04-11T03:57:43.631Z,6.25
2023-04-11T04:00:11.345Z,6.23
2023-04-11T04:02:54.035Z,6.15
2023-04-11T04:05:20.968Z,6.21
2023-04-11T04:07:48.087Z,6.38
2023-04-11T04:10:22.499Z,6.36
2023-04-11T04:12:53.259Z,6.23
2023-04-11T04:15:23.204Z,6.29
2023-04-11T04:17:51.445Z,6.39
2023-04-11T04:20:38.028Z,6.57
2023-04-11T04:23:04.892Z,6.67
2023-04-11T04:25:50.228Z,6.61
2023-04-11T04:28:22.239Z,6.69
2023-04-11T04:30:54.382Z,6.78
2023-04-11T04:33:23.049Z,6.72
2023-04-11T04:35:58.157Z,6.87
2023-04-11T04:38:29.033Z,6.76
2023-04-11T04:40:58.656Z,6.88
2023-04-11T04:43:27.405Z,6.61
2023-04-11T04:46:05.902Z,6.61
2023-04-11T04:48:40.447Z,6.57
2023-04-11T04:51:07.759Z,6.54
2023-04-11T04:53:38.827Z,6.56
2023-04-11T04:56:08.071Z,6.40
2023-04-11T04:58:38.991Z,6.26
2023-04-11T05:01:09.144Z,6.12
2023-04-11T05:03:38.691Z,5.99
2023-04-11T05:06:10.291Z,5.95
2023-04-11T05:08:38.292Z,5.88
2023-04-11T05:11:07.134Z,5.89
2023-04-11T05:13:35.345Z,5.84
2023-04-11T05:16:03.326Z,5.90
2023-04-11T05:18:31.154Z,5.82
2023-04-11T05:20:58.124Z,5.90
2023-04-11T05:23:30.979Z,6.03
2023-04-11T05:26:01.239Z,6.07
2023-04-11T05:28:31.517Z,6.12
2023-04-11T05:30:58.834Z,6.12
2023-04-11T05:33:25.583Z,5.55
2023-04-11T05:35:52.459Z,5.45
2023-04-11T05:38:19.746Z,5.42
2023-04-11T05:40:46.730Z,5.39
2023-04-11T05:43:15.272Z,5.34
2023-04-11T05:45:42.672Z,5.38
2023-04-11T05:48:09.504Z,5.43
2023-04-11T05:50:36.490Z,5.39
2023-04-11T05:53:03.430Z,5.47
2023-04-11T05:55:30.026Z,5.50
2023-04-11T05:57:56.660Z,5.45
2023-04-11T06:00:24.286Z,5.30
2023-04-11T06:02:51.157Z,5.34
2023-04-11T06:05:18.049Z,5.32
2023-04-11T06:07:45.400Z,5.33
2023-04-11T06:10:12.061Z,5.37
2023-04-11T06:12:38.731Z,5.32
2023-04-11T06:15:06.186Z,5.43
2023-04-11T06:17:32.842Z,5.46
2023-04-11T06:20:04.762Z,5.46
2023-04-11T06:22:32.972Z,5.47
2023-04-11T06:24:59.646Z,5.53
2023-04-11T06:27:26.762Z,5.65
2023-04-11T06:29:53.501Z,5.75
2023-04-11T06:32:20.542Z,5.82
2023-04-11T06:34:47.153Z,5.84
2023-04-11T06:37:14.774Z,5.91
2023-04-11T06:39:41.395Z,6.07
2023-04-11T06:42:08.069Z,6.11
2023-04-11T06:44:35.035Z,6.15
2023-04-11T06:47:01.916Z,6.33
2023-04-11T06:49:28.813Z,6.46
2023-04-11T06:51:56.087Z,6.40
2023-04-11T06:54:23.041Z,6.70
2023-04-11T06:56:51.770Z,6.70
2023-04-11T06:59:21.981Z,6.63
2023-04-11T07:01:49.897Z,6.68
2023-04-11T07:04:21.210Z,6.70
2023-04-11T07:06:48.020Z,6.86
2023-04-11T07:09:14.780Z,6.89
2023-04-11T07:11:41.583Z,6.88
2023-04-11T07:14:08.204Z,7.11
2023-04-11T07:16:34.867Z,7.24
2023-04-11T07:19:03.113Z,7.33
2023-04-11T07:21:31.968Z,7.41
2023-04-11T07:24:00.404Z,7.70
2023-04-11T07:26:32.137Z,7.97
2023-04-11T07:29:02.232Z,7.78
2023-04-11T07:31:29.051Z,7.77
2023-04-11T07:33:55.965Z,7.67
2023-04-11T07:36:22.846Z,7.38
2023-04-11T07:38:49.615Z,7.24
2023-04-11T07:41:16.391Z,7.62
2023-04-11T07:43:43.220Z,7.79
2023-04-11T07:46:10.256Z,7.71
2023-04-11T07:48:37.028Z,7.96
2023-04-11T07:51:03.712Z,7.76
2023-04-11T07:53:34.543Z,7.70
2023-04-11T07:56:01.395Z,8.14
2023-04-11T07:58:28.678Z,8.31
2023-04-11T08:00:55.467Z,8.13
2023-04-11T08:03:23.656Z,8.01
2023-04-11T08:05:50.756Z,8.09
2023-04-11T08:08:17.470Z,8.31
2023-04-11T08:10:44.118Z,8.27
2023-04-11T08:13:10.744Z,8.45
2023-04-11T08:15:38.876Z,8.64
2023-04-11T08:18:05.913Z,8.76
2023-04-11T08:20:32.620Z,8.53
2023-04-11T08:22:59.529Z,8.35
2023-04-11T08:25:26.385Z,8.45
2023-04-11T08:27:53.110Z,8.43
2023-04-11T08:30:20.364Z,8.62
2023-04-11T08:32:47.109Z,8.53
2023-04-11T08:35:14.637Z,8.56
2023-04-11T08:37:41.523Z,8.51
2023-04-11T08:40:09.149Z,8.47
2023-04-11T08:42:36.226Z,8.65
2023-04-11T08:45:05.201Z,9.07
2023-04-11T08:47:31.996Z,9.34
2023-04-11T08:49:58.697Z,9.34
2023-04-11T08:52:25.748Z,9.32
2023-04-11T08:54:55.158Z,9.30
2023-04-11T08:57:34.978Z,9.14
2023-04-11T09:00:19.280Z,9.38
2023-04-11T09:03:07.795Z,9.33
2023-04-11T09:05:39.975Z,9.54
2023-04-11T09:08:08.689Z,9.69
2023-04-11T09:10:36.472Z,9.94
2023-04-11T09:13:18.556Z,9.73
2023-04-11T09:15:45.405Z,10.00
2023-04-11T09:18:31.112Z,10.33
2023-04-11T09:21:00.657Z,9.87
2023-04-11T09:23:27.529Z,9.85
2023-04-11T09:25:54.134Z,9.71
2023-04-11T09:28:20.710Z,10.02
2023-04-11T09:30:55.085Z,9.96
2023-04-11T09:33:28.395Z,9.83
2023-04-11T09:35:56.888Z,9.97
2023-04-11T09:38:31.842Z,10.27
2023-04-11T09:40:59.976Z,10.22
2023-04-11T09:43:26.945Z,10.46
2023-04-11T09:46:18.402Z,10.63
2023-04-11T09:49:01.806Z,10.38
2023-04-11T09:51:35.978Z,10.63
2023-04-11T09:54:04.741Z,10.86
2023-04-11T09:56:34.278Z,10.66
2023-04-11T09:59:02.811Z,10.53
2023-04-11T10:01:29.496Z,9.87
2023-04-11T10:03:57.168Z,9.54
2023-04-11T10:06:34.140Z,9.62
2023-04-11T10:09:12.602Z,9.37
2023-04-11T10:11:46.142Z,9.55
2023-04-11T10:14:37.853Z,9.77
2023-04-11T10:17:18.936Z,9.99
2023-04-11T10:19:48.599Z,9.63
2023-04-11T10:22:43.968Z,9.64
2023-04-11T10:25:21.659Z,9.78
2023-04-11T10:27:50.237Z,10.05
2023-04-11T10:30:17.084Z,9.97
2023-04-11T10:33:21.365Z,10.25
2023-04-11T10:36:10.340Z,10.38
2023-04-11T10:38:37.561Z,10.55
2023-04-11T10:41:28.505Z,10.43
2023-04-11T10:44:21.465Z,10.86
2023-04-11T10:46:54.118Z,11.15
2023-04-11T10:49:40.416Z,11.23
2023-04-11T10:52:20.695Z,11.19
2023-04-11T10:54:48.783Z,11.21
2023-04-11T10:57:15.468Z,11.82
2023-04-11T10:59:42.411Z,12.19
2023-04-11T11:02:09.174Z,12.48
2023-04-11T11:04:41.196Z,12.04
2023-04-11T11:07:12.605Z,11.96
2023-04-11T11:09:39.518Z,12.20
2023-04-11T11:12:13.154Z,12.27
2023-04-11T11:14:41.783Z,12.41
2023-04-11T11:17:09.062Z,12.49
2023-04-11T11:19:36.113Z,12.58
2023-04-11T11:22:06.753Z,12.64
2023-04-11T11:24:33.485Z,12.59
2023-04-11T11:27:00.560Z,12.36
2023-04-11T11:29:31.126Z,12.74
2023-04-11T11:31:59.101Z,12.78
2023-04-11T11:34:30.936Z,12.40
2023-04-11T11:36:59.125Z,11.76
2023-04-11T11:39:26.080Z,12.10
2023-04-11T11:41:53.529Z,12.18
2023-04-11T11:44:23.917Z,11.97
2023-04-11T11:47:12.590Z,11.74
2023-04-11T11:49:55.422Z,11.52
2023-04-11T11:52:41.934Z,11.45
2023-04-11T11:55:17.893Z,12.19
2023-04-11T11:57:48.951Z,12.18
2023-04-11T12:00:23.897Z,12.56
2023-04-11T12:02:55.092Z,12.51
2023-04-11T12:05:24.622Z,12.72
2023-04-11T12:07:59.429Z,12.79
2023-04-11T12:10:36.098Z,12.75
2023-04-11T12:13:02.755Z,12.74
2023-04-11T12:15:29.486Z,13.25
2023-04-11T12:17:56.541Z,13.17
2023-04-11T12:20:24.377Z,12.45
2023-04-11T12:22:52.273Z,12.57
2023-04-11T12:25:21.069Z,12.90
2023-04-11T12:27:48.647Z,12.93
2023-04-11T12:30:15.440Z,12.82
2023-04-11T12:32:42.738Z,12.56
2023-04-11T12:35:10.321Z,12.14
2023-04-11T12:37:37.525Z,12.41
2023-04-11T12:40:12.417Z,12.06
2023-04-11T12:42:49.572Z,11.59
2023-04-11T12:45:22.320Z,11.96
2023-04-11T12:47:49.064Z,11.38
2023-04-11T12:50:15.818Z,11.50
2023-04-11T12:52:42.583Z,11.54
2023-04-11T12:55:09.832Z,11.76
2023-04-11T12:57:36.741Z,11.55
2023-04-11T13:00:07.362Z,11.26
2023-04-11T13:02:42.295Z,11.22
2023-04-11T13:05:11.945Z,11.73
2023-04-11T13:07:39.361Z,12.27
2023-04-11T13:10:09.229Z,11.92
2023-04-11T13:12:41.176Z,11.81
2023-04-11T13:15:09.713Z,11.41
2023-04-11T13:17:36.509Z,11.13
2023-04-11T13:20:07.500Z,10.71
2023-04-11T13:22:34.152Z,10.29
2023-04-11T13:25:00.923Z,10.29
2023-04-11T13:27:27.672Z,10.27
2023-04-11T13:29:54.346Z,10.28
2023-04-11T13:32:21.126Z,10.45
2023-04-11T13:34:47.862Z,10.74
2023-04-11T13:37:15.929Z,10.89
2023-04-11T13:39:42.719Z,10.76
2023-04-11T13:42:10.172Z,11.29
2023-04-11T13:44:36.838Z,11.11
2023-04-11T13:47:03.728Z,11.20
2023-04-11T13:49:30.328Z,11.67
2023-04-11T13:51:58.963Z,11.60
2023-04-11T13:54:26.177Z,11.73
2023-04-11T13:56:52.845Z,11.83
2023-04-11T13:59:19.473Z,11.96
2023-04-11T14:01:46.183Z,11.93
2023-04-11T14:04:13.137Z,12.09
2023-04-11T14:06:39.866Z,12.35
2023-04-11T14:09:06.604Z,12.42
2023-04-11T14:11:33.476Z,12.78
2023-04-11T14:14:00.585Z,12.95
2023-04-11T14:16:27.306Z,12.63
2023-04-11T14:18:53.982Z,12.61
2023-04-11T14:21:21.542Z,12.57
2023-04-11T14:23:48.825Z,12.88
2023-04-11T14:26:18.257Z,12.91
2023-04-11T14:28:45.381Z,12.75
2023-04-11T14:31:12.081Z,13.08
2023-04-11T14:33:38.845Z,13.26
2023-04-11T14:36:05.721Z,12.91
2023-04-11T14:38:32.396Z,12.83
2023-04-11T14:40:59.160Z,13.01
2023-04-11T14:43:26.849Z,12.46
2023-04-11T14:45:57.829Z,12.63
2023-04-11T14:48:26.213Z,12.74
2023-04-11T14:50:54.739Z,12.54
2023-04-11T14:53:27.754Z,12.19
2023-04-11T14:55:54.314Z,12.12
2023-04-11T14:58:21.045Z,11.78
2023-04-11T15:00:47.780Z,11.82
2023-04-11T15:03:14.615Z,11.88
2023-04-11T15:05:41.443Z,11.49
2023-04-11T15:08:08.230Z,11.49
2023-04-11T15:10:34.959Z,11.62
2023-04-11T15:13:01.735Z,11.45
2023-04-11T15:15:28.534Z,11.26
2023-04-11T15:18:20.384Z,11.25
2023-04-11T15:20:47.045Z,11.51
2023-04-11T15:23:18.423Z,11.49
2023-04-11T15:25:46.756Z,11.18
2023-04-11T15:28:13.417Z,10.87
2023-04-11T15:30:49.402Z,10.98
2023-04-11T15:33:16.508Z,10.97
2023-04-11T15:35:44.024Z,10.91
2023-04-11T15:38:14.451Z,10.67
2023-04-11T15:40:41.243Z,10.45
2023-04-11T15:43:08.949Z,10.36
2023-04-11T15:45:37.488Z,10.36
2023-04-11T15:48:04.317Z,10.29
2023-04-11T15:50:32.226Z,10.34
2023-04-11T15:52:59.269Z,10.51
2023-04-11T15:55:25.841Z,10.74
2023-04-11T15:57:52.597Z,10.96
2023-04-11T16:00:22.158Z,11.00
2023-04-11T16:02:50.391Z,11.07
2023-04-11T16:05:17.489Z,10.74
2023-04-11T16:07:44.405Z,10.49
2023-04-11T16:10:11.160Z,10.35
2023-04-11T16:12:37.852Z,10.13
2023-04-11T16:15:05.665Z,10.13
2023-04-11T16:17:32.962Z,10.23
2023-04-11T16:20:00.212Z,10.20
2023-04-11T16:22:26.968Z,10.18
2023-04-11T16:24:56.370Z,10.12
2023-04-11T16:27:27.646Z,10.17
2023-04-11T16:29:59.728Z,10.23
2023-04-11T16:32:27.702Z,10.46
2023-04-11T16:35:04.295Z,10.61
2023-04-11T16:37:31.041Z,10.60
2023-04-11T16:39:57.966Z,10.40
2023-04-11T16:42:34.296Z,10.09
2023-04-11T16:45:01.221Z,9.83
2023-04-11T16:47:27.946Z,10.04
2023-04-11T16:49:56.990Z,10.13
2023-04-11T16:52:26.663Z,10.17
2023-04-11T16:54:55.610Z,10.20
2023-04-11T16:57:24.302Z,10.20
2023-04-11T16:59:51.647Z,10.29
2023-04-11T17:02:25.536Z,10.20
2023-04-11T17:04:59.791Z,10.15
2023-04-11T17:07:28.460Z,10.00
2023-04-11T17:09:57.626Z,10.03
2023-04-11T17:12:27.114Z,9.98
2023-04-11T17:14:56.795Z,9.92
2023-04-11T17:17:23.460Z,9.82
2023-04-11T17:19:51.435Z,9.81
2023-04-11T17:22:18.341Z,9.70
2023-04-11T17:24:44.992Z,9.61
2023-04-11T17:27:11.768Z,9.70
2023-04-11T17:29:40.836Z,9.46
2023-04-11T17:32:07.666Z,9.34
2023-04-11T17:34:34.373Z,9.31
2023-04-11T17:37:01.171Z,9.29
2023-04-11T17:39:27.989Z,9.18
2023-04-11T17:42:02.043Z,9.07
2023-04-11T17:44:28.729Z,8.82
2023-04-11T17:46:55.732Z,8.63
2023-04-11T17:49:24.454Z,8.58
2023-04-11T17:51:58.991Z,8.28
2023-04-11T17:54:26.248Z,8.45
2023-04-11T17:56:53.192Z,8.24
2023-04-11T17:59:21.015Z,8.21
2023-04-11T18:01:47.911Z,7.97
2023-04-11T18:04:15.343Z,7.78
2023-04-11T18:06:42.677Z,7.52
2023-04-11T18:09:09.365Z,7.23
2023-04-11T18:11:36.340Z,7.09
2023-04-11T18:14:03.151Z,6.88
2023-04-11T18:16:29.831Z,6.70
2023-04-11T18:18:56.856Z,6.61
2023-04-11T18:21:23.490Z,6.57
2023-04-11T18:23:50.142Z,6.38
2023-04-11T18:26:16.830Z,6.27
2023-04-11T18:28:43.476Z,6.18
2023-04-11T18:31:10.433Z,6.13
2023-04-11T18:33:40.996Z,6.33
2023-04-11T18:36:09.876Z,6.30
2023-04-11T18:38:36.563Z,6.40
2023-04-11T18:41:06.610Z,6.47
2023-04-11T18:43:34.342Z,6.46
2023-04-11T18:46:01.832Z,6.54
2023-04-11T18:48:28.475Z,6.71
2023-04-11T18:50:59.744Z,6.97
2023-04-11T18:53:28.319Z,6.73
2023-04-11T18:55:54.919Z,6.50
2023-04-11T18:58:24.203Z,6.29
2023-04-11T19:00:52.838Z,6.12
2023-04-11T19:03:19.792Z,6.04
2023-04-11T19:05:47.000Z,5.91
2023-04-11T19:08:13.805Z,6.02
2023-04-11T19:10:40.516Z,5.78
2023-04-11T19:13:07.262Z,5.77
2023-04-11T19:15:33.873Z,5.67
2023-04-11T19:18:00.790Z,5.46
2023-04-11T19:20:28.171Z,5.31
2023-04-11T19:22:54.889Z,5.34
2023-04-11T19:25:21.845Z,5.27
2023-04-11T19:27:49.051Z,5.14
2023-04-11T19:30:15.830Z,5.00
2023-04-11T19:32:43.585Z,4.90
2023-04-11T19:35:11.096Z,4.81
2023-04-11T19:37:38.055Z,4.74
2023-04-11T19:40:11.002Z,4.72
2023-04-11T19:42:39.727Z,4.66
2023-04-11T19:45:08.597Z,4.64
2023-04-11T19:47:35.683Z,4.56
2023-04-11T19:50:02.482Z,4.57
2023-04-11T19:52:29.352Z,4.66
2023-04-11T19:54:56.644Z,4.61
2023-04-11T19:57:24.866Z,4.65
2023-04-11T19:59:51.587Z,4.72
2023-04-11T20:02:18.626Z,4.61
2023-04-11T20:04:45.961Z,4.62
2023-04-11T20:07:13.199Z,4.57
2023-04-11T20:09:39.957Z,4.79
2023-04-11T20:12:07.240Z,4.59
2023-04-11T20:14:34.159Z,4.73
2023-04-11T20:17:00.888Z,4.81
2023-04-11T20:19:29.809Z,4.94
2023-04-11T20:21:56.620Z,5.15
2023-04-11T20:24:23.961Z,5.16
2023-04-11T20:26:51.239Z,5.01
2023-04-11T20:29:18.133Z,4.78
2023-04-11T20:31:44.924Z,4.59
2023-04-11T20:34:11.779Z,4.45
2023-04-11T20:36:38.851Z,4.50
2023-04-11T20:39:06.296Z,4.47
2023-04-11T20:41:33.113Z,4.38
2023-04-11T20:43:59.893Z,4.28
2023-04-11T20:46:29.833Z,4.23
2023-04-11T20:48:56.776Z,4.15
2023-04-11T20:51:25.074Z,4.14
2023-04-11T20:53:51.888Z,4.10
2023-04-11T20:56:18.508Z,4.04
2023-04-11T20:58:46.526Z,4.15
2023-04-11T21:01:13.620Z,4.09
2023-04-11T21:03:42.400Z,4.04
2023-04-11T21:06:10.261Z,4.04
2023-04-11T21:08:37.849Z,4.08
2023-04-11T21:11:05.723Z,4.05
2023-04-11T21:13:32.404Z,4.12
2023-04-11T21:15:59.275Z,4.25
2023-04-11T21:18:25.965Z,4.29
2023-04-11T21:20:52.630Z,4.24
2023-04-11T21:23:19.280Z,4.24
2023-04-11T21:25:45.977Z,4.48
2023-04-11T21:28:12.723Z,4.69
2023-04-11T21:30:39.669Z,4.56
2023-04-11T21:33:06.500Z,4.64
2023-04-11T21:35:33.246Z,4.53
2023-04-11T21:37:59.995Z,4.53
2023-04-11T21:40:26.712Z,4.56
2023-04-11T21:42:53.356Z,4.47
2023-04-11T21:45:19.971Z,4.36
2023-04-11T21:47:46.866Z,4.37
2023-04-11T21:50:13.589Z,4.31
2023-04-11T21:52:40.298Z,4.41
2023-04-11T21:55:09.102Z,4.99
2023-04-11T21:57:36.005Z,4.88
2023-04-11T22:00:03.856Z,5.01
2023-04-11T22:02:38.760Z,5.27
2023-04-11T22:05:08.742Z,4.95
2023-04-11T22:07:46.201Z,4.84
2023-04-11T22:10:13.000Z,5.02
2023-04-11T22:12:40.624Z,5.03
2023-04-11T22:15:08.266Z,4.89
2023-04-11T22:17:37.213Z,4.98
2023-04-11T22:20:06.681Z,4.82
2023-04-11T22:22:33.383Z,5.21
2023-04-11T22:25:00.211Z,5.27
2023-04-11T22:27:27.291Z,5.24
2023-04-11T22:29:57.593Z,5.10
2023-04-11T22:32:24.349Z,5.11
2023-04-11T22:34:51.139Z,5.19
2023-04-11T22:37:17.931Z,5.29
2023-04-11T22:39:44.548Z,5.13
2023-04-11T22:42:11.693Z,5.06
2023-04-11T22:44:38.385Z,5.29
2023-04-11T22:47:07.017Z,5.36
2023-04-11T22:49:40.695Z,5.36
2023-04-11T22:52:14.825Z,5.21
2023-04-11T22:54:42.653Z,5.08
2023-04-11T22:57:09.673Z,5.22
2023-04-11T22:59:36.613Z,5.47
2023-04-11T23:02:03.383Z,5.41
2023-04-11T23:04:31.566Z,5.28
2023-04-11T23:06:58.409Z,5.16
2023-04-11T23:09:25.246Z,5.22
2023-04-11T23:11:52.361Z,5.24
2023-04-11T23:14:21.054Z,5.31
2023-04-11T23:16:48.090Z,5.69
2023-04-11T23:19:15.050Z,5.65
2023-04-11T23:21:42.171Z,5.51
2023-04-11T23:24:09.870Z,5.51
2023-04-11T23:26:37.129Z,5.58
2023-04-11T23:29:03.870Z,5.71
2023-04-11T23:31:31.613Z,5.76
2023-04-11T23:33:58.841Z,5.80
2023-04-11T23:36:27.467Z,5.86
2023-04-11T23:38:54.182Z,5.74
2023-04-11T23:41:20.860Z,5.84
2023-04-11T23:43:49.532Z,5.96
2023-04-11T23:46:18.185Z,6.04
2023-04-11T23:48:46.850Z,5.87
2023-04-11T23:51:13.817Z,5.87
2023-04-11T23:53:40.594Z,5.79
2023-04-11T23:56:07.813Z,5.69
2023-04-11T23:58:34.761Z,5.57
